Hauptseite
METAR-TAF:

METAR-TAF

Flughäfen :

Flughafen Dundee

Dundee, Schottland

Breite: 56-27N, Länge: 003-01W, Höhe: 4 m

Beobachtung

Neuester Wetterbericht von vor 10 Stunden und 1 Minuten, um 19:50 UTC
Wind 5 kt aus Ost
Temperatur 13°C
Luftfeuchtigkeit 77%
Luftdruck 1014 hPa
Sichtweite 10 km oder mehr
Leicht bewölkt in der Höhe von 3000 ft

METAR: EGPN 081950Z 09005KT 9999 FEW030 13/09 Q1014

Zeit: 06:51 (05:51 UTC)

Prognose

Neuester Wetterbericht von vor 15 Stunden und 50 Minuten, um 14:01 UTC
Gültige Prognose vom 08 um 15 UTC bis 08 um 19 UTC
Wind 8 kt aus Ost
Sichtweite 10 km oder mehr
Leicht bewölkt in der Höhe von 3000 ft
Wahrscheinlichkeit 30% :
Zeitweise
vom 08 um 17 UTC bis 08 um 19 UTC
Sichtweite: 8000 m
Regenschauer

TAF: EGPN 081401Z 0815/0819 09008KT 9999 FEW030 PROB30 TEMPO 0817/0819 8000 -SHRA

Wetterbeobachtungen und Prognosen von mehr als 4000 Flughäfen (METAR und TAF Bericht).

Die verfügbaren Stationen werden durch gelbe und rote Markierungen auf der Karte dargestellt.

Führen Sie die Maus auf sie, um den Namen der Station zu sehen.

Darauf klicken, um die Beobachtung von Wetterbeobachtungen und Prognosen zu sehen.

Um die Karte zu ändern : klicken Sie auf den grünen Tasten mit einem schwarzen Kreuz Zum Vergrößern, auf den grünen Button mit einem Gedankenstrich zu verkleinern, oder auf die grünen Pfeile für benachbarte Karten.


METAR-TAF: